Time;durP1;ratioP1;P1;durP2;ratioP2;P2;SDS_P1;SDS_P2;PMS_P1;PMS_P2;Temp;Humidity;BMP_temperature;BMP_pressure;BME280_temperature;BME280_humidity;BME280_pressure;Samples;Min_cycle;Max_cycle;Signal;HPM_P1;HPM_P2
2023/10/21 00:01:05;;;;;;;22.00;17.20;;;;;;;14.74;88.40;99241.30;107971;1256;71455;-82
2023/10/21 00:03:32;;;;;;;21.10;18.20;;;;;;;14.77;88.21;99246.90;108060;1254;72722;-81
2023/10/21 00:06:00;;;;;;;25.30;18.10;;;;;;;14.80;88.13;99246.39;108098;1255;60366;-82
2023/10/21 00:08:28;;;;;;;21.80;17.40;;;;;;;14.83;88.21;99241.35;108069;1257;60364;-84
2023/10/21 00:11:03;;;;;;;23.50;16.70;;;;;;;14.85;88.15;99240.45;108121;1257;72567;-81
2023/10/21 00:13:32;;;;;;;20.50;17.40;;;;;;;14.83;88.01;99241.13;108109;1256;72668;-80
2023/10/21 00:15:59;;;;;;;22.20;17.10;;;;;;;14.84;87.98;99245.23;108024;1257;71436;-82
2023/10/21 00:18:27;;;;;;;18.00;15.70;;;;;;;14.87;87.95;99241.66;108038;1257;61891;-82
2023/10/21 00:20:55;;;;;;;21.10;16.00;;;;;;;14.87;87.77;99229.46;108085;1256;60280;-82
2023/10/21 00:23:23;;;;;;;19.40;15.70;;;;;;;14.84;87.69;99228.84;108103;1257;73904;-81
2023/10/21 00:25:50;;;;;;;21.30;15.80;;;;;;;14.84;87.58;99219.70;108147;1256;72443;-81
2023/10/21 00:28:18;;;;;;;19.10;15.10;;;;;;;14.85;87.50;99228.56;108063;1256;71861;-81
2023/10/21 00:30:47;;;;;;;19.20;15.40;;;;;;;14.86;87.43;99223.98;107998;1256;60495;-81
2023/10/21 00:33:15;;;;;;;18.40;15.50;;;;;;;14.88;87.45;99230.38;108053;1255;60404;-84
2023/10/21 00:35:45;;;;;;;17.40;15.10;;;;;;;14.88;87.35;99230.83;108058;1257;73860;-82
2023/10/21 00:38:13;;;;;;;19.30;15.70;;;;;;;14.88;87.08;99234.43;108068;1257;71553;-80
2023/10/21 00:40:53;;;;;;;20.80;15.50;;;;;;;14.88;86.94;99230.30;108106;1256;71444;-81
2023/10/21 00:43:37;;;;;;;18.20;16.20;;;;;;;14.88;86.91;99223.45;107988;1257;60387;-81
2023/10/21 00:46:06;;;;;;;21.20;15.30;;;;;;;14.89;86.96;99226.52;108050;1255;60319;-81
2023/10/21 00:48:34;;;;;;;18.10;15.70;;;;;;;14.89;86.87;99223.27;108052;1256;72542;-81
2023/10/21 00:51:02;;;;;;;17.50;15.20;;;;;;;14.86;86.70;99223.73;107856;1256;71733;-81
2023/10/21 00:53:31;;;;;;;18.00;16.10;;;;;;;14.82;86.72;99226.81;108110;1256;72668;-81
2023/10/21 00:56:02;;;;;;;19.70;15.50;;;;;;;14.85;86.76;99225.23;107836;1256;60381;-81
2023/10/21 00:58:32;;;;;;;22.80;16.10;;;;;;;14.85;86.80;99220.27;108059;1256;60277;-81
2023/10/21 01:01:06;;;;;;;18.70;15.30;;;;;;;14.85;86.76;99218.55;108055;1256;72919;-81
2023/10/21 01:03:35;;;;;;;17.70;15.60;;;;;;;14.84;86.69;99215.89;107889;1256;71370;-82
2023/10/21 01:06:03;;;;;;;19.20;15.80;;;;;;;14.84;86.64;99210.70;107989;1259;72739;-81
2023/10/21 01:08:41;;;;;;;19.40;15.80;;;;;;;14.84;86.69;99218.63;107880;1257;60289;-79
2023/10/21 01:11:10;;;;;;;21.30;15.90;;;;;;;14.83;86.59;99217.41;107977;1256;60226;-81
2023/10/21 01:13:37;;;;;;;19.80;15.80;;;;;;;14.83;86.65;99210.04;108048;1256;72541;-80
2023/10/21 01:16:05;;;;;;;20.60;17.00;;;;;;;14.85;86.71;99208.34;108007;1256;72824;-80
2023/10/21 01:18:34;;;;;;;21.70;16.20;;;;;;;14.85;86.50;99213.98;108016;1256;72426;-79
2023/10/21 01:21:02;;;;;;;20.50;15.80;;;;;;;14.84;86.56;99218.73;107850;1256;60438;-80
2023/10/21 01:23:33;;;;;;;20.90;16.10;;;;;;;14.82;86.56;99221.05;108075;1256;60437;-81
2023/10/21 01:26:04;;;;;;;17.30;15.10;;;;;;;14.82;86.47;99224.98;108032;1257;73865;-81
2023/10/21 01:28:33;;;;;;;21.30;15.80;;;;;;;14.83;86.48;99221.15;108125;1257;70494;-82
2023/10/21 01:31:01;;;;;;;19.30;15.70;;;;;;;14.83;86.60;99229.52;108013;1259;72677;-81
2023/10/21 01:33:28;;;;;;;20.00;15.20;;;;;;;14.81;86.48;99224.36;108003;1256;60945;-81
2023/10/21 01:35:56;;;;;;;19.70;15.90;;;;;;;14.80;86.40;99226.48;108112;1257;60430;-82
2023/10/21 01:38:24;;;;;;;21.60;17.00;;;;;;;14.78;86.53;99228.34;107887;1256;73852;-81
2023/10/21 01:40:52;;;;;;;18.00;15.50;;;;;;;14.76;86.49;99221.19;108121;1256;71549;-81
2023/10/21 01:43:26;;;;;;;19.30;16.00;;;;;;;14.70;86.47;99227.38;108025;1256;72402;-81
2023/10/21 01:46:10;;;;;;;21.40;17.10;;;;;;;14.67;86.59;99230.06;107983;1256;61709;-81
2023/10/21 01:48:58;;;;;;;;;;;;;;;14.65;86.67;99230.61;107888;1257;60333;-81
2023/10/21 01:51:26;;;;;;;20.30;16.20;;;;;;;14.65;86.78;99231.44;107874;1257;73907;-82
2023/10/21 01:53:54;;;;;;;22.10;16.90;;;;;;;14.64;86.88;99240.87;108024;1256;72762;-81
2023/10/21 01:56:21;;;;;;;22.20;17.70;;;;;;;14.64;86.89;99237.77;107966;1256;71405;-81
2023/10/21 01:58:49;;;;;;;20.70;16.80;;;;;;;14.61;86.89;99236.59;107956;1256;61748;-81
2023/10/21 02:01:16;;;;;;;20.30;16.30;;;;;;;14.60;87.02;99243.60;107864;1259;60581;-81
2023/10/21 02:03:44;;;;;;;26.50;17.50;;;;;;;14.59;87.08;99245.23;107702;1258;72640;-81
2023/10/21 02:06:12;;;;;;;19.00;16.40;;;;;;;14.60;86.99;99250.11;107952;1259;71148;-81
2023/10/21 02:08:39;;;;;;;21.50;16.50;;;;;;;14.60;87.12;99254.48;107897;1258;72497;-81
2023/10/21 02:11:08;;;;;;;22.50;16.70;;;;;;;14.57;87.06;99257.63;108054;1256;60395;-82
2023/10/21 02:13:35;;;;;;;23.50;17.40;;;;;;;14.54;86.93;99252.07;107961;1256;60449;-82
2023/10/21 02:16:09;;;;;;;21.60;16.90;;;;;;;14.54;87.12;99250.23;107991;1257;73090;-82
2023/10/21 02:18:36;;;;;;;20.70;17.60;;;;;;;14.55;87.11;99246.41;108054;1257;71662;-81
2023/10/21 02:21:06;;;;;;;21.10;16.90;;;;;;;14.51;87.01;99250.23;107912;1255;72712;-81
2023/10/21 02:23:33;;;;;;;24.20;17.70;;;;;;;14.50;87.09;99241.64;107900;1257;60469;-80
2023/10/21 02:26:04;;;;;;;25.40;18.60;;;;;;;14.48;87.21;99244.86;107858;1258;60315;-81
2023/10/21 02:28:32;;;;;;;21.00;17.40;;;;;;;14.46;87.24;99241.85;107975;1259;72920;-80
2023/10/21 02:31:05;;;;;;;20.20;17.80;;;;;;;14.45;87.37;99244.63;108017;1259;71564;-80
2023/10/21 02:33:33;;;;;;;20.30;17.20;;;;;;;14.44;87.44;99254.48;108034;1257;71280;-80
2023/10/21 02:36:01;;;;;;;21.00;18.30;;;;;;;14.44;87.45;99251.27;107815;1257;316455;-81
2023/10/21 02:38:29;;;;;;;26.80;19.50;;;;;;;14.44;87.53;99261.15;107857;1257;60296;-80
2023/10/21 02:40:56;;;;;;;18.60;16.40;;;;;;;14.44;87.52;99268.20;107984;1256;73845;-80
2023/10/21 02:43:24;;;;;;;20.70;17.80;;;;;;;14.41;87.48;99271.77;108049;1257;70671;-81
2023/10/21 02:45:51;;;;;;;22.20;17.30;;;;;;;14.38;87.55;99270.02;107944;1256;71380;-82
2023/10/21 02:48:20;;;;;;;22.90;17.70;;;;;;;14.37;87.45;99273.27;108002;1259;61741;-82
2023/10/21 02:50:50;;;;;;;23.30;17.20;;;;;;;14.37;87.53;99274.29;108086;1256;59350;-83
2023/10/21 02:53:18;;;;;;;23.20;18.50;;;;;;;14.38;87.52;99271.31;107860;1261;73813;-82
2023/10/21 02:55:46;;;;;;;23.90;18.20;;;;;;;14.39;87.56;99267.16;108048;1257;71254;-81
2023/10/21 02:58:14;;;;;;;20.90;18.20;;;;;;;14.40;87.64;99267.66;108055;1257;72488;-82
2023/10/21 03:00:41;;;;;;;18.90;16.30;;;;;;;14.39;87.49;99276.77;108022;1257;61738;-81
2023/10/21 03:03:09;;;;;;;19.10;16.50;;;;;;;14.40;87.60;99281.16;107781;1256;60021;-82
2023/10/21 03:05:39;;;;;;;22.00;17.10;;;;;;;14.41;87.57;99282.20;108116;1256;72587;-82
2023/10/21 03:08:07;;;;;;;21.10;16.50;;;;;;;14.42;87.62;99290.27;108142;1256;72725;-81
2023/10/21 03:10:36;;;;;;;20.60;15.90;;;;;;;14.43;87.54;99294.34;108009;1256;71168;-81
2023/10/21 03:13:04;;;;;;;19.70;16.60;;;;;;;14.43;87.48;99306.58;108149;1255;61597;-81
2023/10/21 03:15:35;;;;;;;17.50;15.50;;;;;;;14.42;87.54;99315.05;108128;1257;60319;-82
2023/10/21 03:18:03;;;;;;;18.50;16.60;;;;;;;14.43;87.59;99307.55;108158;1258;72605;-82
2023/10/21 03:20:32;;;;;;;20.50;16.30;;;;;;;14.42;87.44;99310.48;108046;1257;72431;-81
2023/10/21 03:23:00;;;;;;;21.40;16.40;;;;;;;14.38;87.50;99317.73;108089;1256;71455;-81
2023/10/21 03:25:28;;;;;;;18.60;16.00;;;;;;;14.36;87.33;99322.70;108109;1255;61728;-81
2023/10/21 03:27:56;;;;;;;19.30;16.50;;;;;;;14.33;87.43;99320.05;108093;1257;60411;-82
2023/10/21 03:30:24;;;;;;;19.60;16.40;;;;;;;14.33;87.47;99318.69;108018;1257;73879;-81
2023/10/21 03:32:52;;;;;;;21.80;15.90;;;;;;;14.35;87.49;99323.69;108051;1256;70675;-81
2023/10/21 03:35:20;;;;;;;17.90;14.80;;;;;;;14.37;87.48;99328.62;108013;1257;72712;-82
2023/10/21 03:37:49;;;;;;;18.60;15.90;;;;;;;14.37;87.42;99331.42;108129;1257;60804;-81
2023/10/21 03:40:17;;;;;;;17.80;15.30;;;;;;;14.33;87.33;99332.97;107922;1257;60083;-82
2023/10/21 03:42:45;;;;;;;22.00;16.20;;;;;;;14.33;87.36;99329.72;108012;1256;73844;-82
2023/10/21 03:45:12;;;;;;;21.50;16.00;;;;;;;14.35;87.32;99334.80;108023;1257;72472;-81
2023/10/21 03:47:40;;;;;;;18.70;15.50;;;;;;;14.35;87.30;99338.29;108092;1256;71801;-82
2023/10/21 03:50:08;;;;;;;20.60;16.80;;;;;;;14.35;87.18;99335.80;108138;1257;60717;-82
2023/10/21 03:52:36;;;;;;;21.20;16.20;;;;;;;14.35;87.23;99338.41;107988;1256;60036;-82
2023/10/21 03:55:04;;;;;;;17.80;15.60;;;;;;;14.37;87.25;99339.80;107997;1257;72990;-81
2023/10/21 03:57:33;;;;;;;20.90;16.00;;;;;;;14.36;87.31;99341.80;108103;1256;72290;-82
2023/10/21 04:00:05;;;;;;;18.60;16.20;;;;;;;14.36;87.04;99337.18;107995;1256;71433;-82
2023/10/21 04:02:38;;;;;;;20.60;16.10;;;;;;;14.37;86.99;99333.83;107966;1257;61748;-82
2023/10/21 04:05:08;;;;;;;20.30;15.70;;;;;;;14.37;87.02;99337.30;107984;1256;60514;-81
2023/10/21 04:07:35;;;;;;;19.40;16.10;;;;;;;14.37;86.93;99340.88;108040;1256;73600;-82
2023/10/21 04:10:03;;;;;;;18.80;15.40;;;;;;;14.36;86.90;99335.58;108010;1256;71131;-82
2023/10/21 04:12:31;;;;;;;18.30;14.80;;;;;;;14.36;86.99;99332.48;107973;1256;72732;-81
2023/10/21 04:14:59;;;;;;;17.60;15.60;;;;;;;14.27;86.99;99334.75;108037;1259;60455;-80
2023/10/21 04:17:26;;;;;;;17.90;16.00;;;;;;;14.22;86.95;99340.27;107989;1256;60341;-80
2023/10/21 04:19:54;;;;;;;18.20;16.20;;;;;;;14.20;86.98;99340.54;108001;1257;72536;-80
2023/10/21 04:22:22;;;;;;;20.00;15.40;;;;;;;14.20;87.08;99341.62;107996;1256;72721;-81
2023/10/21 04:24:50;;;;;;;22.00;15.30;;;;;;;14.20;87.07;99346.25;107995;1257;70549;-81
2023/10/21 04:27:17;;;;;;;21.30;16.00;;;;;;;14.21;87.11;99340.52;107981;1257;60382;-81
2023/10/21 04:29:46;;;;;;;20.70;16.70;;;;;;;14.19;86.94;99344.37;108006;1256;60192;-81
2023/10/21 04:32:14;;;;;;;20.40;17.30;;;;;;;14.16;87.02;99351.96;107998;1256;73206;-81
2023/10/21 04:34:42;;;;;;;19.00;16.70;;;;;;;14.17;87.07;99359.41;107971;1256;72554;-80
2023/10/21 04:37:10;;;;;;;19.60;16.70;;;;;;;14.16;87.09;99366.14;107995;1257;71415;-81
2023/10/21 04:39:40;;;;;;;17.30;15.00;;;;;;;14.18;86.97;99362.18;108040;1257;61922;-81
2023/10/21 04:42:07;;;;;;;17.80;16.00;;;;;;;14.20;87.03;99360.77;108091;1257;60271;-84
2023/10/21 04:44:35;;;;;;;18.70;16.80;;;;;;;14.24;86.98;99362.45;108071;1257;74098;-83
2023/10/21 04:47:03;;;;;;;21.00;16.80;;;;;;;14.27;86.97;99363.23;108086;1256;70509;-81
2023/10/21 04:49:30;;;;;;;18.50;16.60;;;;;;;14.30;86.90;99366.84;108094;1259;71431;-80
2023/10/21 04:51:58;;;;;;;17.30;15.40;;;;;;;14.32;86.87;99374.36;108051;1257;61668;-81
2023/10/21 04:54:29;;;;;;;17.30;14.50;;;;;;;14.36;86.64;99374.91;108067;1256;60308;-80
2023/10/21 04:56:56;;;;;;;19.30;16.20;;;;;;;14.36;86.53;99379.69;107958;1256;73499;-81
2023/10/21 04:59:24;;;;;;;17.70;15.90;;;;;;;14.38;86.50;99383.89;107954;1256;71994;-82
2023/10/21 05:01:52;;;;;;;19.80;16.30;;;;;;;14.40;86.55;99390.31;107985;1257;72503;-82
2023/10/21 05:04:22;;;;;;;18.60;16.60;;;;;;;14.43;86.61;99397.60;108174;1257;61651;-82
2023/10/21 05:06:50;;;;;;;22.40;16.80;;;;;;;14.43;86.61;99409.73;108091;1257;58974;-79
2023/10/21 05:09:19;;;;;;;21.50;17.80;;;;;;;14.43;86.65;99410.48;108185;1256;72558;-82
2023/10/21 05:11:47;;;;;;;21.60;18.10;;;;;;;14.45;86.82;99414.69;108110;1257;71461;-81
2023/10/21 05:14:14;;;;;;;20.90;18.20;;;;;;;14.48;86.92;99422.77;108096;1259;71110;-82
2023/10/21 05:16:42;;;;;;;23.60;18.70;;;;;;;14.49;86.91;99428.28;108140;1255;61732;-81
2023/10/21 05:19:10;;;;;;;21.20;17.60;;;;;;;14.51;87.15;99433.87;108171;1257;59803;-83
2023/10/21 05:21:38;;;;;;;19.70;17.10;;;;;;;14.57;87.08;99436.68;108093;1257;73230;-83
2023/10/21 05:24:06;;;;;;;20.10;17.00;;;;;;;14.64;87.16;99439.95;107999;1256;71480;-81
2023/10/21 05:26:34;;;;;;;17.30;15.50;;;;;;;14.67;87.12;99443.77;107947;1257;72478;-80
2023/10/21 05:29:02;;;;;;;17.70;15.20;;;;;;;14.63;87.00;99452.01;108039;1256;60539;-82
2023/10/21 05:31:31;;;;;;;18.10;15.30;;;;;;;14.56;86.89;99455.81;107942;1257;60399;-81
2023/10/21 05:33:59;;;;;;;16.40;13.30;;;;;;;14.52;86.88;99461.38;108109;1257;73761;-81
2023/10/21 05:36:27;;;;;;;17.80;14.30;;;;;;;14.48;86.84;99469.79;108114;1257;72686;-82
2023/10/21 05:38:54;;;;;;;16.40;13.00;;;;;;;14.47;86.78;99471.86;108121;1256;72647;-82
2023/10/21 05:41:22;;;;;;;12.80;10.60;;;;;;;14.41;86.57;99471.48;108080;1256;60447;-81
2023/10/21 05:43:51;;;;;;;11.50;8.70;;;;;;;14.35;86.56;99470.28;108105;1255;60881;-81
2023/10/21 05:46:21;;;;;;;11.00;8.20;;;;;;;14.22;86.36;99464.06;107964;1257;73780;-81
2023/10/21 05:48:54;;;;;;;8.80;7.90;;;;;;;14.08;86.21;99469.18;108121;1257;72696;-81
2023/10/21 05:51:22;;;;;;;10.60;7.60;;;;;;;13.99;86.29;99482.05;107989;1258;71427;-82
2023/10/21 05:53:51;;;;;;;9.30;7.20;;;;;;;13.93;86.39;99495.13;107804;1260;60495;-82
2023/10/21 05:56:19;;;;;;;8.10;6.70;;;;;;;13.90;86.43;99501.15;107933;1257;60569;-80
2023/10/21 05:58:47;;;;;;;10.00;7.70;;;;;;;13.84;86.42;99503.70;107931;1257;73927;-81
2023/10/21 06:01:16;;;;;;;9.80;7.90;;;;;;;13.74;86.11;99508.92;107962;1257;72778;-80
2023/10/21 06:03:43;;;;;;;8.80;7.00;;;;;;;13.69;86.26;99511.56;107962;1257;70481;-81
2023/10/21 06:06:11;;;;;;;8.80;6.80;;;;;;;13.65;86.30;99517.87;107954;1257;60457;-81
2023/10/21 06:08:39;;;;;;;9.50;7.60;;;;;;;13.61;86.40;99520.65;107970;1261;60822;-81
2023/10/21 06:11:08;;;;;;;9.10;7.40;;;;;;;13.59;86.36;99527.93;107959;1257;73790;-81
2023/10/21 06:13:36;;;;;;;9.20;7.00;;;;;;;13.57;86.74;99524.33;107970;1257;71463;-83
2023/10/21 06:16:03;;;;;;;9.80;7.00;;;;;;;13.58;86.82;99533.38;107836;1257;72700;-81
2023/10/21 06:18:33;;;;;;;10.00;8.00;;;;;;;13.68;86.82;99545.65;108008;1257;60462;-82
2023/10/21 06:21:00;;;;;;;9.80;7.90;;;;;;;13.74;86.87;99547.63;108034;1257;60376;-81
2023/10/21 06:23:29;;;;;;;10.20;7.40;;;;;;;13.82;86.91;99552.44;108058;1257;72971;-82
2023/10/21 06:25:56;;;;;;;9.40;6.70;;;;;;;13.87;86.80;99555.70;108019;1257;72703;-81
2023/10/21 06:28:24;;;;;;;8.30;6.40;;;;;;;13.86;86.53;99557.39;108064;1257;72667;-81
2023/10/21 06:30:52;;;;;;;8.50;6.50;;;;;;;13.77;85.95;99556.67;107958;1256;60735;-81
2023/10/21 06:33:19;;;;;;;9.20;6.30;;;;;;;13.66;85.74;99554.56;108072;1257;60398;-80
2023/10/21 06:35:48;;;;;;;8.50;6.50;;;;;;;13.56;85.75;99551.66;107956;1257;72570;-80
2023/10/21 06:38:17;;;;;;;8.90;6.90;;;;;;;13.51;85.69;99561.48;108075;1258;71468;-82
2023/10/21 06:40:46;;;;;;;8.20;6.20;;;;;;;13.46;85.64;99572.33;108090;1255;71373;-82
2023/10/21 06:43:28;;;;;;;10.50;6.50;;;;;;;13.44;85.74;99584.42;108014;1259;61722;-81
2023/10/21 06:45:56;;;;;;;8.20;5.90;;;;;;;13.49;85.85;99598.24;107682;1258;60326;-80
2023/10/21 06:48:23;;;;;;;7.60;5.50;;;;;;;13.51;85.77;99601.83;107964;1259;74355;-81
2023/10/21 06:50:52;;;;;;;6.60;4.80;;;;;;;13.50;85.62;99601.62;107964;1257;72734;-82
2023/10/21 06:53:19;;;;;;;7.90;5.30;;;;;;;13.43;85.25;99601.89;108046;1257;71988;-82
2023/10/21 06:55:49;;;;;;;6.30;4.90;;;;;;;13.36;85.22;99601.15;107996;1257;61769;-82
2023/10/21 06:58:16;;;;;;;7.60;5.70;;;;;;;13.31;85.40;99603.14;108078;1258;59043;-81
2023/10/21 07:00:44;;;;;;;8.00;5.70;;;;;;;13.26;85.19;99607.64;108079;1257;73590;-83
2023/10/21 07:03:11;;;;;;;8.70;5.80;;;;;;;13.22;85.11;99607.08;108079;1258;72748;-81
2023/10/21 07:05:43;;;;;;;7.10;5.60;;;;;;;13.23;85.14;99603.38;107953;1256;72750;-82
2023/10/21 07:08:11;;;;;;;8.50;5.50;;;;;;;13.25;85.24;99603.20;108110;1256;61867;-82
2023/10/21 07:10:39;;;;;;;9.20;6.20;;;;;;;13.21;85.04;99600.89;108098;1256;60439;-82
2023/10/21 07:13:08;;;;;;;9.60;6.00;;;;;;;13.18;85.10;99615.36;108115;1258;73917;-81
2023/10/21 07:15:36;;;;;;;8.40;5.80;;;;;;;13.21;85.22;99624.58;107924;1257;72827;-81
2023/10/21 07:18:04;;;;;;;9.50;5.90;;;;;;;13.23;85.16;99631.05;108048;1257;72703;-81
2023/10/21 07:20:32;;;;;;;9.20;5.70;;;;;;;13.16;85.37;99639.09;108069;1257;60366;-82
2023/10/21 07:22:59;;;;;;;6.70;4.80;;;;;;;13.17;85.63;99631.38;108042;1256;60296;-81
2023/10/21 07:25:27;;;;;;;8.60;5.20;;;;;;;13.15;85.75;99627.21;108008;1257;74275;-80
2023/10/21 07:27:54;;;;;;;7.40;5.50;;;;;;;13.13;85.72;99625.86;108062;1257;71575;-80
2023/10/21 07:30:23;;;;;;;8.70;5.50;;;;;;;13.09;85.63;99629.20;107990;1257;71522;-82
2023/10/21 07:32:51;;;;;;;6.80;4.70;;;;;;;13.07;85.65;99630.98;107956;1258;60448;-82
2023/10/21 07:35:19;;;;;;;7.10;5.10;;;;;;;13.05;85.62;99634.27;108044;1256;60287;-82
2023/10/21 07:37:47;;;;;;;10.10;5.20;;;;;;;13.01;85.59;99639.91;108190;1258;72546;-82
2023/10/21 07:40:14;;;;;;;7.70;4.80;;;;;;;13.01;85.65;99643.02;108155;1258;71445;-82
2023/10/21 07:42:42;;;;;;;11.70;5.60;;;;;;;13.04;85.88;99644.04;107993;1258;71418;-82
2023/10/21 07:45:11;;;;;;;8.00;5.50;;;;;;;13.09;85.97;99649.73;107941;1262;61660;-83
2023/10/21 07:47:39;;;;;;;10.80;5.80;;;;;;;13.19;85.95;99656.92;107998;1258;60545;-82
2023/10/21 07:50:07;;;;;;;9.10;6.00;;;;;;;13.25;85.96;99666.36;108110;1260;73814;-81
2023/10/21 07:52:36;;;;;;;8.90;6.50;;;;;;;13.31;85.69;99674.09;108091;1256;72477;-83
2023/10/21 07:55:04;;;;;;;8.50;5.70;;;;;;;13.30;85.14;99676.85;107964;1257;71414;-80
2023/10/21 07:57:32;;;;;;;9.40;6.00;;;;;;;13.25;84.86;99679.84;108068;1257;61722;-81
2023/10/21 08:00:00;;;;;;;8.70;5.40;;;;;;;13.17;84.43;99679.64;108110;1255;60440;-80
2023/10/21 08:02:30;;;;;;;9.60;5.80;;;;;;;13.05;84.21;99678.98;108055;1257;73864;-79
2023/10/21 08:04:58;;;;;;;8.20;5.50;;;;;;;13.00;84.20;99684.02;108066;1258;72683;-80
2023/10/21 08:07:27;;;;;;;9.80;6.80;;;;;;;13.00;84.26;99690.06;107980;1256;70164;-81
2023/10/21 08:09:56;;;;;;;8.50;6.20;;;;;;;13.00;84.35;99701.65;107852;1261;60402;-83
2023/10/21 08:12:24;;;;;;;9.40;5.40;;;;;;;13.02;84.35;99708.62;107883;1262;60401;-83
2023/10/21 08:14:52;;;;;;;8.80;6.10;;;;;;;13.03;84.31;99720.95;108093;1258;73826;-80
2023/10/21 08:17:19;;;;;;;9.80;6.40;;;;;;;13.04;84.26;99727.20;108104;1256;72745;-81
2023/10/21 08:19:48;;;;;;;9.70;6.70;;;;;;;13.04;84.21;99736.11;108105;1259;75331;-81
2023/10/21 08:22:15;;;;;;;8.00;5.40;;;;;;;13.01;84.18;99743.32;108058;1257;61669;-82
2023/10/21 08:24:43;;;;;;;8.40;5.30;;;;;;;13.01;84.11;99747.57;108051;1257;60000;-80
2023/10/21 08:27:11;;;;;;;9.80;5.80;;;;;;;12.99;84.03;99753.56;108073;1259;73895;-82
2023/10/21 08:29:39;;;;;;;8.60;5.50;;;;;;;12.94;83.90;99754.81;108113;1255;72863;-83
2023/10/21 08:32:07;;;;;;;7.80;5.30;;;;;;;12.94;84.02;99755.13;108063;1257;70592;-82
2023/10/21 08:34:36;;;;;;;7.90;5.50;;;;;;;12.97;84.03;99755.52;107954;1257;60378;-82
2023/10/21 08:37:07;;;;;;;8.30;6.00;;;;;;;12.96;84.08;99752.64;108016;1258;60507;-82
2023/10/21 08:39:35;;;;;;;9.90;5.80;;;;;;;12.94;84.06;99746.34;108003;1257;73882;-80
2023/10/21 08:42:05;;;;;;;9.30;5.90;;;;;;;12.98;84.26;99742.04;107941;1260;71447;-81
2023/10/21 08:44:37;;;;;;;8.70;5.90;;;;;;;13.00;84.13;99737.57;108015;1258;71177;-80
2023/10/21 08:47:05;;;;;;;6.20;4.70;;;;;;;13.00;84.15;99738.86;107953;1260;60290;-82
2023/10/21 08:49:33;;;;;;;8.20;5.60;;;;;;;13.01;84.20;99747.20;108010;1257;60610;-80
2023/10/21 08:52:02;;;;;;;7.70;5.00;;;;;;;13.02;84.18;99754.61;108070;1256;73968;-81
2023/10/21 08:54:31;;;;;;;6.70;5.10;;;;;;;13.03;84.13;99757.02;107994;1258;71363;-81
2023/10/21 08:56:59;;;;;;;7.90;5.10;;;;;;;13.02;84.04;99758.59;107952;1257;72694;-81
2023/10/21 08:59:27;;;;;;;8.10;5.80;;;;;;;13.00;83.85;99766.89;107928;1257;60437;-80
2023/10/21 09:01:55;;;;;;;8.10;5.60;;;;;;;12.94;83.86;99766.39;108115;1257;60452;-80
2023/10/21 09:04:26;;;;;;;8.90;6.40;;;;;;;12.85;83.78;99762.59;108116;1257;73894;-82
2023/10/21 09:07:00;;;;;;;7.80;5.60;;;;;;;12.78;84.09;99771.82;108021;1259;71853;-80
2023/10/21 09:09:28;;;;;;;7.80;5.70;;;;;;;12.76;84.13;99769.60;108105;1257;71352;-80
2023/10/21 09:12:03;;;;;;;8.80;6.10;;;;;;;12.74;84.15;99767.38;107983;1256;61744;-79
2023/10/21 09:14:31;;;;;;;9.10;5.80;;;;;;;12.72;84.29;99769.66;108143;1257;60345;-79
2023/10/21 09:17:00;;;;;;;9.40;6.50;;;;;;;12.70;84.28;99770.50;108068;1256;73892;-81
2023/10/21 09:19:28;;;;;;;8.90;6.00;;;;;;;12.67;84.34;99773.80;108158;1257;71262;-81
2023/10/21 09:21:56;;;;;;;8.70;6.00;;;;;;;12.67;84.41;99773.38;108020;1259;72453;-81
2023/10/21 09:24:24;;;;;;;9.70;6.90;;;;;;;12.65;84.45;99773.77;107921;1257;61702;-79
2023/10/21 09:26:52;;;;;;;9.60;6.60;;;;;;;12.65;84.44;99773.30;107929;1257;60927;-80
2023/10/21 09:29:22;;;;;;;11.40;7.00;;;;;;;12.71;84.65;99777.09;107998;1257;72925;-80
2023/10/21 09:31:52;;;;;;;9.50;7.20;;;;;;;12.76;84.84;99784.35;108002;1258;71442;-79
2023/10/21 09:34:27;;;;;;;9.90;6.30;;;;;;;12.79;84.76;99784.88;107888;1259;71354;-80
2023/10/21 09:37:04;;;;;;;8.80;6.20;;;;;;;12.81;84.72;99792.42;107900;1257;60381;-80
2023/10/21 09:39:36;;;;;;;9.10;6.30;;;;;;;12.80;84.50;99794.24;108038;1256;60338;-81
2023/10/21 09:42:06;;;;;;;8.90;6.50;;;;;;;12.81;84.56;99791.82;108036;1259;75873;-80
2023/10/21 09:44:36;;;;;;;9.00;5.50;;;;;;;12.82;84.50;99786.92;107985;1257;74158;-79
2023/10/21 09:47:08;;;;;;;8.90;6.60;;;;;;;12.79;84.25;99786.48;107944;1257;71561;-80
2023/10/21 09:49:38;;;;;;;9.20;6.90;;;;;;;12.72;84.15;99789.12;107902;1260;60035;-79
2023/10/21 09:52:10;;;;;;;12.40;7.80;;;;;;;12.68;84.09;99789.50;108018;1257;60316;-79
2023/10/21 09:54:45;;;;;;;9.40;7.40;;;;;;;12.70;84.42;99793.54;107907;1256;74001;-79
2023/10/21 09:57:15;;;;;;;10.80;8.30;;;;;;;12.70;84.30;99798.31;107954;1259;72748;-80
2023/10/21 09:59:44;;;;;;;11.20;7.70;;;;;;;12.63;84.40;99808.46;107872;1257;72850;-78
2023/10/21 10:02:14;;;;;;;9.40;7.40;;;;;;;12.62;84.60;99811.98;107721;1257;60407;-79
2023/10/21 10:04:42;;;;;;;9.90;6.60;;;;;;;12.59;84.57;99813.19;108118;1257;60257;-80
2023/10/21 10:07:12;;;;;;;14.90;7.90;;;;;;;12.56;84.60;99819.75;107999;1257;73957;-84
2023/10/21 10:10:41;;;;;;;11.10;7.30;;;;;;;12.54;84.63;99834.43;108030;1257;72971;-81
2023/10/21 10:13:14;;;;;;;10.20;6.50;;;;;;;12.54;84.77;99845.09;107910;1256;71549;-80
2023/10/21 10:15:42;;;;;;;8.50;6.20;;;;;;;12.53;84.76;99850.29;107786;1257;61821;-80
2023/10/21 10:18:18;;;;;;;12.20;7.50;;;;;;;12.54;84.79;99849.75;107781;1257;60354;-80
2023/10/21 10:20:56;;;;;;;11.40;7.50;;;;;;;12.54;84.89;99846.74;107876;1256;73028;-81
2023/10/21 10:23:25;;;;;;;14.00;8.80;;;;;;;12.54;84.82;99854.08;108057;1258;71453;-81
2023/10/21 10:25:54;;;;;;;12.80;8.50;;;;;;;12.49;84.69;99864.31;107955;1257;71071;-80
2023/10/21 10:28:45;;;;;;;10.50;7.30;;;;;;;12.46;84.67;99866.51;107873;1257;60295;-80
2023/10/21 10:31:26;;;;;;;11.40;8.10;;;;;;;12.42;84.60;99875.21;107526;1257;62177;-82
2023/10/21 10:34:15;;;;;;;11.20;7.90;;;;;;;12.39;84.64;99878.58;107811;1256;72674;-80
2023/10/21 10:36:43;;;;;;;;;;;;;;;12.36;84.82;99884.02;107731;1257;71805;-79
2023/10/21 10:39:41;;;;;;;12.00;8.20;;;;;;;12.35;84.77;99887.89;108214;1258;72692;-80
2023/10/21 10:42:15;;;;;;;10.00;6.60;;;;;;;12.26;84.86;99898.86;107748;1256;60444;-81
2023/10/21 10:44:48;;;;;;;11.40;7.40;;;;;;;12.20;85.08;99909.04;108143;1254;60190;-81
2023/10/21 10:47:19;;;;;;;11.20;7.50;;;;;;;12.14;85.12;99910.43;108025;1256;71941;-81
2023/10/21 10:50:00;;;;;;;11.70;7.40;;;;;;;12.09;85.23;99913.10;108106;1257;72622;-81
2023/10/21 10:52:46;;;;;;;13.10;7.80;;;;;;;12.06;85.51;99912.33;108136;1256;72379;-82
2023/10/21 10:55:19;;;;;;;12.00;7.30;;;;;;;12.01;85.62;99914.47;108067;1255;62719;-80
2023/10/21 10:57:48;;;;;;;9.00;6.00;;;;;;;12.00;85.78;99924.02;108073;1256;62608;-84
2023/10/21 11:00:22;;;;;;;10.40;6.60;;;;;;;12.01;85.90;99925.44;108102;1257;72882;-82
2023/10/21 11:02:50;;;;;;;9.50;6.10;;;;;;;12.03;85.99;99924.41;108133;1257;72493;-81
2023/10/21 11:05:21;;;;;;;10.10;6.10;;;;;;;12.05;86.03;99927.06;108104;1254;70745;-78
2023/10/21 11:07:54;;;;;;;11.20;6.90;;;;;;;12.07;86.12;99920.24;108110;1254;61753;-79
2023/10/21 11:10:23;;;;;;;9.60;5.90;;;;;;;12.04;86.11;99925.20;107964;1257;60322;-80
2023/10/21 11:12:52;;;;;;;10.00;6.30;;;;;;;12.01;86.20;99930.85;108103;1257;73851;-81
2023/10/21 11:15:20;;;;;;;10.10;6.40;;;;;;;12.00;86.16;99930.48;108093;1257;72728;-80
2023/10/21 11:17:47;;;;;;;10.90;6.20;;;;;;;12.00;86.11;99934.55;107996;1254;71456;-79
2023/10/21 11:20:15;;;;;;;11.50;6.90;;;;;;;12.00;86.14;99936.20;107907;1257;60718;-80
2023/10/21 11:22:43;;;;;;;9.90;6.70;;;;;;;12.01;86.19;99936.36;107880;1256;60416;-79
2023/10/21 11:25:10;;;;;;;10.70;7.00;;;;;;;11.96;86.21;99938.38;107951;1256;73949;-80
2023/10/21 11:27:38;;;;;;;12.30;7.40;;;;;;;11.92;86.16;99944.40;107991;1256;71511;-80